sensor_id;sensor_type;location;lat;lon;timestamp;pressure;altitude;pressure_sealevel;temperature;humidity
8585;BME280;7180;52.742;11.420;2023-05-23T00:00:57;100758.78;;;16.33;100.00
8585;BME280;7180;52.742;11.420;2023-05-23T00:03:24;100753.09;;;16.27;100.00
8585;BME280;7180;52.742;11.420;2023-05-23T00:05:49;100748.63;;;16.27;100.00
8585;BME280;7180;52.742;11.420;2023-05-23T00:08:15;100750.31;;;16.28;100.00
8585;BME280;7180;52.742;11.420;2023-05-23T00:10:41;100741.41;;;16.29;100.00
8585;BME280;7180;52.742;11.420;2023-05-23T00:13:06;100719.09;;;16.32;100.00
8585;BME280;7180;52.742;11.420;2023-05-23T00:15:36;100721.75;;;16.32;100.00
8585;BME280;7180;52.742;11.420;2023-05-23T00:18:02;100715.47;;;16.33;100.00
8585;BME280;7180;52.742;11.420;2023-05-23T00:20:27;100705.94;;;16.30;100.00
8585;BME280;7180;52.742;11.420;2023-05-23T00:22:53;100708.59;;;16.30;100.00
8585;BME280;7180;52.742;11.420;2023-05-23T00:25:18;100709.56;;;16.29;100.00
8585;BME280;7180;52.742;11.420;2023-05-23T00:27:46;100700.75;;;16.29;100.00
8585;BME280;7180;52.742;11.420;2023-05-23T00:30:11;100711.13;;;16.32;100.00
8585;BME280;7180;52.742;11.420;2023-05-23T00:32:36;100710.16;;;16.33;100.00
8585;BME280;7180;52.742;11.420;2023-05-23T00:35:02;100710.16;;;16.33;100.00
8585;BME280;7180;52.742;11.420;2023-05-23T00:37:28;100698.81;;;16.31;100.00
8585;BME280;7180;52.742;11.420;2023-05-23T00:39:53;100696.91;;;16.22;100.00
8585;BME280;7180;52.742;11.420;2023-05-23T00:42:18;100697.75;;;16.22;100.00
8585;BME280;7180;52.742;11.420;2023-05-23T00:44:43;100693.31;;;16.23;100.00
8585;BME280;7180;52.742;11.420;2023-05-23T00:47:09;100692.44;;;16.22;100.00
8585;BME280;7180;52.742;11.420;2023-05-23T00:49:35;100688.22;;;16.20;100.00
8585;BME280;7180;52.742;11.420;2023-05-23T00:52:00;100683.16;;;16.17;100.00
8585;BME280;7180;52.742;11.420;2023-05-23T00:54:28;100684.63;;;16.21;100.00
8585;BME280;7180;52.742;11.420;2023-05-23T00:56:55;100678.47;;;16.20;100.00
8585;BME280;7180;52.742;11.420;2023-05-23T00:59:21;100672.31;;;16.20;100.00
8585;BME280;7180;52.742;11.420;2023-05-23T01:01:49;100677.38;;;16.23;100.00
8585;BME280;7180;52.742;11.420;2023-05-23T01:04:15;100672.91;;;16.23;100.00
8585;BME280;7180;52.742;11.420;2023-05-23T01:06:40;100676.28;;;16.25;100.00
8585;BME280;7180;52.742;11.420;2023-05-23T01:09:07;100678.06;;;16.25;100.00
8585;BME280;7180;52.742;11.420;2023-05-23T01:11:51;100675.19;;;16.28;100.00
8585;BME280;7180;52.742;11.420;2023-05-23T01:14:24;100664.13;;;16.23;100.00
8585;BME280;7180;52.742;11.420;2023-05-23T01:17:10;100671.69;;;16.27;100.00
8585;BME280;7180;52.742;11.420;2023-05-23T01:20:14;100669.91;;;16.28;100.00
8585;BME280;7180;52.742;11.420;2023-05-23T01:28:10;100669.66;;;16.20;100.00
8585;BME280;7180;52.742;11.420;2023-05-23T01:30:39;100662.06;;;16.15;100.00
8585;BME280;7180;52.742;11.420;2023-05-23T01:33:07;100664.59;;;16.17;100.00
8585;BME280;7180;52.742;11.420;2023-05-23T01:35:32;100655.91;;;16.15;100.00
8585;BME280;7180;52.742;11.420;2023-05-23T01:37:57;100658.84;;;16.12;100.00
8585;BME280;7180;52.742;11.420;2023-05-23T01:40:24;100653.16;;;16.05;100.00
8585;BME280;7180;52.742;11.420;2023-05-23T01:42:51;100656.53;;;16.07;100.00
8585;BME280;7180;52.742;11.420;2023-05-23T01:45:17;100662.94;;;16.05;100.00
8585;BME280;7180;52.742;11.420;2023-05-23T01:47:46;100660.16;;;16.06;100.00
8585;BME280;7180;52.742;11.420;2023-05-23T01:50:13;100660.75;;;15.99;100.00
8585;BME280;7180;52.742;11.420;2023-05-23T01:52:38;100664.97;;;16.01;100.00
8585;BME280;7180;52.742;11.420;2023-05-23T01:55:04;100676.81;;;15.97;100.00
8585;BME280;7180;52.742;11.420;2023-05-23T01:57:35;100675.09;;;15.96;100.00
8585;BME280;7180;52.742;11.420;2023-05-23T02:00:00;100679.34;;;15.99;100.00
8585;BME280;7180;52.742;11.420;2023-05-23T02:02:26;100677.53;;;15.99;100.00
8585;BME280;7180;52.742;11.420;2023-05-23T02:04:52;100677.41;;;16.01;100.00
8585;BME280;7180;52.742;11.420;2023-05-23T02:07:18;100680.88;;;16.01;100.00
8585;BME280;7180;52.742;11.420;2023-05-23T02:09:47;100697.16;;;15.97;100.00
8585;BME280;7180;52.742;11.420;2023-05-23T02:12:12;100695.25;;;15.99;100.00
8585;BME280;7180;52.742;11.420;2023-05-23T02:14:37;100690.78;;;15.99;100.00
8585;BME280;7180;52.742;11.420;2023-05-23T02:17:03;100692.13;;;15.94;100.00
8585;BME280;7180;52.742;11.420;2023-05-23T02:19:29;100701.88;;;15.93;100.00
8585;BME280;7180;52.742;11.420;2023-05-23T02:21:54;100708.25;;;15.91;100.00
8585;BME280;7180;52.742;11.420;2023-05-23T02:24:19;100720.31;;;15.95;100.00
8585;BME280;7180;52.742;11.420;2023-05-23T02:26:45;100718.50;;;15.95;100.00
8585;BME280;7180;52.742;11.420;2023-05-23T02:29:10;100713.94;;;15.97;100.00
8585;BME280;7180;52.742;11.420;2023-05-23T02:31:35;100710.56;;;15.95;100.00
8585;BME280;7180;52.742;11.420;2023-05-23T02:34:00;100708.75;;;15.96;100.00
8585;BME280;7180;52.742;11.420;2023-05-23T02:36:26;100718.38;;;15.97;100.00
8585;BME280;7180;52.742;11.420;2023-05-23T02:38:51;100718.38;;;15.97;100.00
8585;BME280;7180;52.742;11.420;2023-05-23T02:41:16;100717.31;;;15.99;100.00
8585;BME280;7180;52.742;11.420;2023-05-23T02:43:45;100718.97;;;16.00;100.00
8585;BME280;7180;52.742;11.420;2023-05-23T02:46:10;100720.91;;;15.98;100.00
8585;BME280;7180;52.742;11.420;2023-05-23T02:48:37;100726.81;;;16.02;100.00
8585;BME280;7180;52.742;11.420;2023-05-23T02:51:02;100734.78;;;16.02;100.00
8585;BME280;7180;52.742;11.420;2023-05-23T02:53:28;100732.13;;;16.02;100.00
8585;BME280;7180;52.742;11.420;2023-05-23T02:55:53;100727.53;;;16.04;100.00
8585;BME280;7180;52.742;11.420;2023-05-23T02:58:18;100730.78;;;16.07;100.00
8585;BME280;7180;52.742;11.420;2023-05-23T03:00:44;100735.03;;;16.10;100.00
8585;BME280;7180;52.742;11.420;2023-05-23T03:03:10;100733.09;;;16.12;100.00
8585;BME280;7180;52.742;11.420;2023-05-23T03:05:35;100736.81;;;16.20;100.00
8585;BME280;7180;52.742;11.420;2023-05-23T03:08:01;100740.81;;;16.26;100.00
8585;BME280;7180;52.742;11.420;2023-05-23T03:10:27;100728.75;;;16.22;100.00
8585;BME280;7180;52.742;11.420;2023-05-23T03:12:52;100732.13;;;16.24;100.00
8585;BME280;7180;52.742;11.420;2023-05-23T03:15:17;100729.34;;;16.25;100.00
8585;BME280;7180;52.742;11.420;2023-05-23T03:17:43;100733.31;;;16.31;100.00
8585;BME280;7180;52.742;11.420;2023-05-23T03:20:08;100727.16;;;16.30;100.00
8585;BME280;7180;52.742;11.420;2023-05-23T03:22:34;100723.56;;;16.31;100.00
8585;BME280;7180;52.742;11.420;2023-05-23T03:25:00;100715.72;;;16.30;100.00
8585;BME280;7180;52.742;11.420;2023-05-23T03:27:25;100716.81;;;16.27;100.00
8585;BME280;7180;52.742;11.420;2023-05-23T03:29:51;100706.31;;;16.26;100.00
8585;BME280;7180;52.742;11.420;2023-05-23T03:32:16;100709.81;;;16.26;100.00
8585;BME280;7180;52.742;11.420;2023-05-23T03:34:41;100708.97;;;16.26;100.00
8585;BME280;7180;52.742;11.420;2023-05-23T03:37:06;100705.09;;;16.30;100.00
8585;BME280;7180;52.742;11.420;2023-05-23T03:39:32;100711.47;;;16.38;100.00
8585;BME280;7180;52.742;11.420;2023-05-23T03:41:57;100705.72;;;16.33;100.00
8585;BME280;7180;52.742;11.420;2023-05-23T03:44:22;100709.69;;;16.39;100.00
8585;BME280;7180;52.742;11.420;2023-05-23T03:46:47;100699.88;;;16.39;100.00
8585;BME280;7180;52.742;11.420;2023-05-23T03:49:13;100710.28;;;16.42;100.00
8585;BME280;7180;52.742;11.420;2023-05-23T03:51:39;100703.97;;;16.43;100.00
8585;BME280;7180;52.742;11.420;2023-05-23T03:54:04;100696.50;;;16.48;100.00
8585;BME280;7180;52.742;11.420;2023-05-23T03:56:29;100684.31;;;16.46;100.00
8585;BME280;7180;52.742;11.420;2023-05-23T03:58:55;100691.94;;;16.50;100.00
8585;BME280;7180;52.742;11.420;2023-05-23T04:01:20;100693.03;;;16.48;100.00
8585;BME280;7180;52.742;11.420;2023-05-23T04:03:45;100687.75;;;16.48;100.00
8585;BME280;7180;52.742;11.420;2023-05-23T04:06:12;100687.81;;;16.46;100.00
8585;BME280;7180;52.742;11.420;2023-05-23T04:08:37;100694.72;;;16.49;100.00
8585;BME280;7180;52.742;11.420;2023-05-23T04:11:05;100696.66;;;16.47;100.00
8585;BME280;7180;52.742;11.420;2023-05-23T04:13:31;100697.13;;;16.41;100.00
8585;BME280;7180;52.742;11.420;2023-05-23T04:15:59;100695.75;;;16.46;100.00
8585;BME280;7180;52.742;11.420;2023-05-23T04:18:26;100692.06;;;16.49;100.00
8585;BME280;7180;52.742;11.420;2023-05-23T04:20:52;100700.25;;;16.57;100.00
8585;BME280;7180;52.742;11.420;2023-05-23T04:23:18;100690.34;;;16.59;100.00
8585;BME280;7180;52.742;11.420;2023-05-23T04:25:43;100696.25;;;16.63;100.00
8585;BME280;7180;52.742;11.420;2023-05-23T04:28:09;100692.94;;;16.70;100.00
8585;BME280;7180;52.742;11.420;2023-05-23T04:30:35;100699.44;;;16.77;100.00
8585;BME280;7180;52.742;11.420;2023-05-23T04:33:00;100693.91;;;16.80;100.00
8585;BME280;7180;52.742;11.420;2023-05-23T04:35:25;100691.38;;;16.79;100.00
8585;BME280;7180;52.742;11.420;2023-05-23T04:37:53;100687.59;;;16.81;100.00
8585;BME280;7180;52.742;11.420;2023-05-23T04:40:23;100687.16;;;16.76;100.00
8585;BME280;7180;52.742;11.420;2023-05-23T04:42:49;100689.09;;;16.74;100.00
8585;BME280;7180;52.742;11.420;2023-05-23T04:45:16;100696.91;;;16.76;100.00
8585;BME280;7180;52.742;11.420;2023-05-23T04:47:41;100692.72;;;16.73;100.00
8585;BME280;7180;52.742;11.420;2023-05-23T04:50:09;100696.34;;;16.72;100.00
8585;BME280;7180;52.742;11.420;2023-05-23T04:52:34;100691.28;;;16.69;100.00
8585;BME280;7180;52.742;11.420;2023-05-23T04:55:00;100693.53;;;16.74;100.00
8585;BME280;7180;52.742;11.420;2023-05-23T04:57:26;100692.72;;;16.73;100.00
8585;BME280;7180;52.742;11.420;2023-05-23T04:59:51;100691.28;;;16.69;100.00
8585;BME280;7180;52.742;11.420;2023-05-23T05:02:17;100694.41;;;16.74;100.00
8585;BME280;7180;52.742;11.420;2023-05-23T05:04:43;100691.03;;;16.72;100.00
8585;BME280;7180;52.742;11.420;2023-05-23T05:07:09;100687.16;;;16.76;100.00
8585;BME280;7180;52.742;11.420;2023-05-23T05:09:34;100691.25;;;16.80;100.00
8585;BME280;7180;52.742;11.420;2023-05-23T05:12:00;100693.63;;;16.83;100.00
8585;BME280;7180;52.742;11.420;2023-05-23T05:14:25;100687.47;;;16.83;100.00
8585;BME280;7180;52.742;11.420;2023-05-23T05:16:51;100683.88;;;16.84;100.00
8585;BME280;7180;52.742;11.420;2023-05-23T05:19:19;100680.16;;;16.75;100.00
8585;BME280;7180;52.742;11.420;2023-05-23T05:21:45;100687.16;;;16.76;100.00
8585;BME280;7180;52.742;11.420;2023-05-23T05:24:10;100682.81;;;16.75;100.00
8585;BME280;7180;52.742;11.420;2023-05-23T05:26:36;100683.44;;;16.68;100.00
8585;BME280;7180;52.742;11.420;2023-05-23T05:29:02;100686.25;;;16.66;100.00
8585;BME280;7180;52.742;11.420;2023-05-23T05:31:27;100680.44;;;16.61;100.00
8585;BME280;7180;52.742;11.420;2023-05-23T05:33:53;100680.22;;;16.53;100.00
8585;BME280;7180;52.742;11.420;2023-05-23T05:36:18;100685.78;;;16.50;100.00
8585;BME280;7180;52.742;11.420;2023-05-23T05:38:44;100686.00;;;16.58;100.00
8585;BME280;7180;52.742;11.420;2023-05-23T05:41:09;100687.47;;;16.51;100.00
8585;BME280;7180;52.742;11.420;2023-05-23T05:43:35;100685.53;;;16.42;100.00
8585;BME280;7180;52.742;11.420;2023-05-23T05:46:00;100675.94;;;16.19;100.00
8585;BME280;7180;52.742;11.420;2023-05-23T05:48:25;100666.53;;;16.04;100.00
8585;BME280;7180;52.742;11.420;2023-05-23T05:50:51;100667.75;;;15.89;100.00
8585;BME280;7180;52.742;11.420;2023-05-23T05:53:16;100679.56;;;15.74;100.00
8585;BME280;7180;52.742;11.420;2023-05-23T05:55:41;100687.16;;;15.67;100.00
8585;BME280;7180;52.742;11.420;2023-05-23T05:58:07;100699.78;;;15.64;100.00
8585;BME280;7180;52.742;11.420;2023-05-23T06:00:32;100695.00;;;15.57;100.00
8585;BME280;7180;52.742;11.420;2023-05-23T06:02:59;100696.44;;;15.50;100.00
8585;BME280;7180;52.742;11.420;2023-05-23T06:05:24;100707.97;;;15.49;100.00
8585;BME280;7180;52.742;11.420;2023-05-23T06:07:51;100710.13;;;15.44;100.00
8585;BME280;7180;52.742;11.420;2023-05-23T06:10:16;100700.81;;;15.39;100.00
8585;BME280;7180;52.742;11.420;2023-05-23T06:12:41;100705.50;;;15.35;100.00
8585;BME280;7180;52.742;11.420;2023-05-23T06:15:07;100713.75;;;15.54;100.00
8585;BME280;7180;52.742;11.420;2023-05-23T06:17:33;100712.06;;;15.42;100.00
8585;BME280;7180;52.742;11.420;2023-05-23T06:19:59;100704.91;;;15.32;100.00
8585;BME280;7180;52.742;11.420;2023-05-23T06:22:25;100708.13;;;15.24;100.00
8585;BME280;7180;52.742;11.420;2023-05-23T06:24:50;100714.88;;;15.28;100.00
8585;BME280;7180;52.742;11.420;2023-05-23T06:27:15;100715.00;;;15.27;100.00
8585;BME280;7180;52.742;11.420;2023-05-23T06:29:40;100714.03;;;15.28;100.00
8585;BME280;7180;52.742;11.420;2023-05-23T06:32:06;100713.41;;;15.24;100.00
8585;BME280;7180;52.742;11.420;2023-05-23T06:34:31;100712.13;;;15.30;100.00
8585;BME280;7180;52.742;11.420;2023-05-23T06:36:56;100707.44;;;15.33;100.00
8585;BME280;7180;52.742;11.420;2023-05-23T06:39:21;100708.28;;;15.34;100.00
8585;BME280;7180;52.742;11.420;2023-05-23T06:41:47;100715.25;;;15.35;100.00
8585;BME280;7180;52.742;11.420;2023-05-23T06:44:13;100718.44;;;15.51;100.00
8585;BME280;7180;52.742;11.420;2023-05-23T06:46:38;100705.59;;;15.69;100.00
8585;BME280;7180;52.742;11.420;2023-05-23T06:49:03;100694.41;;;15.65;100.00
8585;BME280;7180;52.742;11.420;2023-05-23T06:51:29;100683.69;;;15.67;100.00
8585;BME280;7180;52.742;11.420;2023-05-23T06:53:54;100678.59;;;15.75;100.00
8585;BME280;7180;52.742;11.420;2023-05-23T06:56:21;100683.44;;;15.92;100.00
8585;BME280;7180;52.742;11.420;2023-05-23T06:58:47;100662.44;;;15.89;100.00
8585;BME280;7180;52.742;11.420;2023-05-23T07:01:12;100649.91;;;15.91;100.00
8585;BME280;7180;52.742;11.420;2023-05-23T07:03:37;100654.25;;;16.03;100.00
8585;BME280;7180;52.742;11.420;2023-05-23T07:06:06;100640.25;;;16.23;100.00
8585;BME280;7180;52.742;11.420;2023-05-23T07:08:31;100634.97;;;16.43;100.00
8585;BME280;7180;52.742;11.420;2023-05-23T07:10:56;100612.91;;;16.54;100.00
8585;BME280;7180;52.742;11.420;2023-05-23T07:13:21;100613.97;;;16.83;100.00
8585;BME280;7180;52.742;11.420;2023-05-23T07:15:47;100596.47;;;17.22;100.00
8585;BME280;7180;52.742;11.420;2023-05-23T07:18:12;100563.25;;;17.07;100.00
8585;BME280;7180;52.742;11.420;2023-05-23T07:20:37;100538.06;;;17.01;100.00
8585;BME280;7180;52.742;11.420;2023-05-23T07:23:03;100540.91;;;17.09;100.00
8585;BME280;7180;52.742;11.420;2023-05-23T07:25:28;100532.94;;;17.09;99.63
8585;BME280;7180;52.742;11.420;2023-05-23T07:27:53;100532.53;;;17.14;98.87
8585;BME280;7180;52.742;11.420;2023-05-23T07:30:19;100538.59;;;17.25;98.31
8585;BME280;7180;52.742;11.420;2023-05-23T07:32:46;100526.94;;;17.17;97.84
8585;BME280;7180;52.742;11.420;2023-05-23T07:35:12;100540.03;;;17.29;97.48
8585;BME280;7180;52.742;11.420;2023-05-23T07:37:37;100540.97;;;17.58;97.02
8585;BME280;7180;52.742;11.420;2023-05-23T07:40:04;100485.06;;;17.39;95.19
8585;BME280;7180;52.742;11.420;2023-05-23T07:42:29;100483.69;;;17.45;94.65
8585;BME280;7180;52.742;11.420;2023-05-23T07:44:54;100513.88;;;17.65;94.62
8585;BME280;7180;52.742;11.420;2023-05-23T07:47:20;100490.47;;;17.58;94.23
8585;BME280;7180;52.742;11.420;2023-05-23T07:49:45;100500.28;;;17.68;94.06
8585;BME280;7180;52.742;11.420;2023-05-23T07:52:11;100487.75;;;18.08;93.16
8585;BME280;7180;52.742;11.420;2023-05-23T07:54:37;100462.25;;;18.34;91.87
8585;BME280;7180;52.742;11.420;2023-05-23T07:57:02;100459.16;;;18.29;91.62
8585;BME280;7180;52.742;11.420;2023-05-23T07:59:27;100463.25;;;18.42;91.40
8585;BME280;7180;52.742;11.420;2023-05-23T08:01:54;100445.56;;;18.60;90.54
8585;BME280;7180;52.742;11.420;2023-05-23T08:04:19;100433.59;;;18.74;89.57
8585;BME280;7180;52.742;11.420;2023-05-23T08:06:44;100432.22;;;18.70;89.37
8585;BME280;7180;52.742;11.420;2023-05-23T08:09:12;100471.63;;;19.03;89.69
8585;BME280;7180;52.742;11.420;2023-05-23T08:11:37;100460.81;;;19.41;89.36
8585;BME280;7180;52.742;11.420;2023-05-23T08:14:03;100421.25;;;19.82;87.91
8585;BME280;7180;52.742;11.420;2023-05-23T08:16:28;100378.81;;;19.53;86.56
8585;BME280;7180;52.742;11.420;2023-05-23T08:18:53;100410.81;;;19.71;86.68
8585;BME280;7180;52.742;11.420;2023-05-23T08:21:18;100324.81;;;18.79;85.88
8585;BME280;7180;52.742;11.420;2023-05-23T08:23:44;100388.50;;;18.63;86.81
8585;BME280;7180;52.742;11.420;2023-05-23T08:26:09;100384.34;;;18.51;86.81
8585;BME280;7180;52.742;11.420;2023-05-23T08:28:34;100422.03;;;18.27;87.83
8585;BME280;7180;52.742;11.420;2023-05-23T08:31:00;100429.16;;;18.36;87.88
8585;BME280;7180;52.742;11.420;2023-05-23T08:33:25;100440.13;;;18.33;88.25
8585;BME280;7180;52.742;11.420;2023-05-23T08:35:50;100421.75;;;18.40;87.58
8585;BME280;7180;52.742;11.420;2023-05-23T08:38:16;100422.19;;;18.26;87.73
8585;BME280;7180;52.742;11.420;2023-05-23T08:40:48;100470.53;;;18.12;88.97
8585;BME280;7180;52.742;11.420;2023-05-23T08:43:14;100471.94;;;18.16;88.59
8585;BME280;7180;52.742;11.420;2023-05-23T08:45:40;100435.09;;;17.92;88.45
8585;BME280;7180;52.742;11.420;2023-05-23T08:48:07;100481.44;;;18.18;88.96
8585;BME280;7180;52.742;11.420;2023-05-23T08:50:36;100459.19;;;17.91;88.74
8585;BME280;7180;52.742;11.420;2023-05-23T08:53:03;100466.44;;;17.79;89.12
8585;BME280;7180;52.742;11.420;2023-05-23T08:55:29;100489.25;;;17.91;89.23
8585;BME280;7180;52.742;11.420;2023-05-23T08:57:56;100498.38;;;17.98;89.70
8585;BME280;7180;52.742;11.420;2023-05-23T09:00:26;100507.06;;;18.10;89.96
8585;BME280;7180;52.742;11.420;2023-05-23T09:02:52;100512.97;;;18.23;89.49
8585;BME280;7180;52.742;11.420;2023-05-23T09:05:19;100508.50;;;18.42;89.58
8585;BME280;7180;52.742;11.420;2023-05-23T09:07:45;100469.81;;;18.29;88.76
8585;BME280;7180;52.742;11.420;2023-05-23T09:10:16;100473.19;;;18.21;89.01
8585;BME280;7180;52.742;11.420;2023-05-23T09:12:42;100478.53;;;18.21;88.87
8585;BME280;7180;52.742;11.420;2023-05-23T09:15:09;100470.66;;;18.10;88.93
8585;BME280;7180;52.742;11.420;2023-05-23T09:17:35;100493.19;;;17.97;89.46
8585;BME280;7180;52.742;11.420;2023-05-23T09:20:02;100511.81;;;17.87;89.60
8585;BME280;7180;52.742;11.420;2023-05-23T09:22:29;100547.34;;;17.77;90.96
8585;BME280;7180;52.742;11.420;2023-05-23T09:24:55;100538.16;;;18.00;89.97
8585;BME280;7180;52.742;11.420;2023-05-23T09:27:21;100520.47;;;17.80;90.34
8585;BME280;7180;52.742;11.420;2023-05-23T09:29:47;100536.75;;;17.96;89.99
8585;BME280;7180;52.742;11.420;2023-05-23T09:32:15;100523.44;;;17.46;90.32
8585;BME280;7180;52.742;11.420;2023-05-23T09:34:57;100557.19;;;17.25;91.26
8585;BME280;7180;52.742;11.420;2023-05-23T09:37:28;100610.06;;;17.28;92.43
8585;BME280;7180;52.742;11.420;2023-05-23T09:39:53;100622.13;;;17.32;92.91
8585;BME280;7180;52.742;11.420;2023-05-23T09:42:20;100652.66;;;17.38;93.60
8585;BME280;7180;52.742;11.420;2023-05-23T09:44:47;100628.31;;;17.42;93.11
8585;BME280;7180;52.742;11.420;2023-05-23T09:47:12;100623.00;;;17.42;93.28
8585;BME280;7180;52.742;11.420;2023-05-23T09:49:38;100640.47;;;17.35;93.68
8585;BME280;7180;52.742;11.420;2023-05-23T09:52:04;100648.63;;;17.23;94.02
8585;BME280;7180;52.742;11.420;2023-05-23T09:54:29;100677.94;;;17.12;94.80
8585;BME280;7180;52.742;11.420;2023-05-23T09:56:57;100696.94;;;17.07;95.45
8585;BME280;7180;52.742;11.420;2023-05-23T09:59:27;100707.88;;;17.14;95.81
8585;BME280;7180;52.742;11.420;2023-05-23T10:01:55;100726.91;;;17.19;96.68
8585;BME280;7180;52.742;11.420;2023-05-23T10:04:21;100715.94;;;17.23;96.38
8585;BME280;7180;52.742;11.420;2023-05-23T10:06:50;100716.88;;;17.22;96.68
8585;BME280;7180;52.742;11.420;2023-05-23T10:09:19;100712.94;;;17.37;96.56
8585;BME280;7180;52.742;11.420;2023-05-23T10:14:39;100707.03;;;17.34;96.62
8585;BME280;7180;52.742;11.420;2023-05-23T10:17:11;100707.91;;;17.55;96.08
8585;BME280;7180;52.742;11.420;2023-05-23T10:19:59;100677.25;;;17.81;95.28
8585;BME280;7180;52.742;11.420;2023-05-23T10:22:25;100643.41;;;17.93;94.24
8585;BME280;7180;52.742;11.420;2023-05-23T10:24:51;100644.25;;;17.93;94.34
8585;BME280;7180;52.742;11.420;2023-05-23T10:27:18;100625.50;;;17.85;93.76
8585;BME280;7180;52.742;11.420;2023-05-23T10:29:43;100634.47;;;17.94;93.35
8585;BME280;7180;52.742;11.420;2023-05-23T10:32:10;100619.84;;;17.79;92.97
8585;BME280;7180;52.742;11.420;2023-05-23T10:34:58;100642.59;;;17.62;93.65
8585;BME280;7180;52.742;11.420;2023-05-23T10:37:39;100683.41;;;17.51;94.51
8585;BME280;7180;52.742;11.420;2023-05-23T10:42:55;100773.88;;;17.29;97.67
8585;BME280;7180;52.742;11.420;2023-05-23T10:45:22;100795.50;;;17.25;98.72
8585;BME280;7180;52.742;11.420;2023-05-23T10:47:51;100807.06;;;17.35;99.27
8585;BME280;7180;52.742;11.420;2023-05-23T10:50:31;100804.97;;;17.18;99.72
8585;BME280;7180;52.742;11.420;2023-05-23T10:52:58;100824.94;;;17.01;100.00
8585;BME280;7180;52.742;11.420;2023-05-23T10:55:24;100842.34;;;16.94;100.00
8585;BME280;7180;52.742;11.420;2023-05-23T10:58:09;100851.50;;;17.01;100.00
8585;BME280;7180;52.742;11.420;2023-05-23T11:00:34;100855.97;;;17.01;100.00
8585;BME280;7180;52.742;11.420;2023-05-23T11:03:04;100859.75;;;16.65;100.00
8585;BME280;7180;52.742;11.420;2023-05-23T11:05:31;100874.22;;;16.50;100.00
8585;BME280;7180;52.742;11.420;2023-05-23T11:08:12;100879.97;;;16.33;100.00
8585;BME280;7180;52.742;11.420;2023-05-23T11:10:50;100883.91;;;16.05;100.00
8585;BME280;7180;52.742;11.420;2023-05-23T11:13:16;100890.72;;;15.86;100.00
8585;BME280;7180;52.742;11.420;2023-05-23T11:15:41;100893.81;;;15.69;100.00
8585;BME280;7180;52.742;11.420;2023-05-23T11:18:09;100895.19;;;15.50;100.00
8585;BME280;7180;52.742;11.420;2023-05-23T11:20:36;100889.03;;;15.50;100.00
8585;BME280;7180;52.742;11.420;2023-05-23T11:23:06;100889.00;;;15.26;100.00
8585;BME280;7180;52.742;11.420;2023-05-23T11:25:51;100906.53;;;15.16;100.00
8585;BME280;7180;52.742;11.420;2023-05-23T11:28:17;100916.56;;;15.11;100.00
8585;BME280;7180;52.742;11.420;2023-05-23T11:30:43;100917.78;;;15.07;100.00
8585;BME280;7180;52.742;11.420;2023-05-23T11:33:12;100921.59;;;15.03;100.00
8585;BME280;7180;52.742;11.420;2023-05-23T11:35:42;100922.41;;;15.16;100.00
8585;BME280;7180;52.742;11.420;2023-05-23T11:38:08;100922.09;;;15.08;100.00
8585;BME280;7180;52.742;11.420;2023-05-23T11:40:38;100919.78;;;15.16;100.00
8585;BME280;7180;52.742;11.420;2023-05-23T11:43:06;100925.09;;;15.27;100.00
8585;BME280;7180;52.742;11.420;2023-05-23T11:45:32;100934.34;;;15.34;100.00
8585;BME280;7180;52.742;11.420;2023-05-23T11:48:03;100901.19;;;15.29;100.00
8585;BME280;7180;52.742;11.420;2023-05-23T11:50:29;100879.72;;;15.08;100.00
8585;BME280;7180;52.742;11.420;2023-05-23T11:52:54;100882.94;;;15.24;100.00
8585;BME280;7180;52.742;11.420;2023-05-23T11:55:20;100880.41;;;15.23;100.00
8585;BME280;7180;52.742;11.420;2023-05-23T11:57:46;100882.94;;;15.24;100.00
8585;BME280;7180;52.742;11.420;2023-05-23T12:00:12;100894.16;;;15.28;100.00
8585;BME280;7180;52.742;11.420;2023-05-23T12:02:39;100903.69;;;15.43;100.00
8585;BME280;7180;52.742;11.420;2023-05-23T12:05:12;100907.53;;;15.26;100.00
8585;BME280;7180;52.742;11.420;2023-05-23T12:07:46;100912.47;;;15.07;100.00
8585;BME280;7180;52.742;11.420;2023-05-23T12:10:13;100923.63;;;15.00;100.00
8585;BME280;7180;52.742;11.420;2023-05-23T12:12:42;100945.75;;;14.86;100.00
8585;BME280;7180;52.742;11.420;2023-05-23T12:15:09;100959.50;;;14.91;100.00
8585;BME280;7180;52.742;11.420;2023-05-23T12:17:36;100956.34;;;14.86;100.00
8585;BME280;7180;52.742;11.420;2023-05-23T12:20:03;100961.88;;;14.83;100.00
8585;BME280;7180;52.742;11.420;2023-05-23T12:22:28;100965.06;;;14.76;100.00
8585;BME280;7180;52.742;11.420;2023-05-23T12:24:55;100968.22;;;14.68;100.00
8585;BME280;7180;52.742;11.420;2023-05-23T12:27:34;100982.09;;;14.59;100.00
8585;BME280;7180;52.742;11.420;2023-05-23T12:30:11;100999.03;;;14.57;100.00
8585;BME280;7180;52.742;11.420;2023-05-23T12:32:41;101009.41;;;14.47;100.00
8585;BME280;7180;52.742;11.420;2023-05-23T12:35:11;101010.03;;;14.50;100.00
8585;BME280;7180;52.742;11.420;2023-05-23T12:37:44;101019.97;;;14.47;100.00
8585;BME280;7180;52.742;11.420;2023-05-23T12:40:16;101018.38;;;14.44;100.00
8585;BME280;7180;52.742;11.420;2023-05-23T12:42:55;101002.66;;;14.16;100.00
8585;BME280;7180;52.742;11.420;2023-05-23T12:45:31;101004.16;;;14.20;100.00
8585;BME280;7180;52.742;11.420;2023-05-23T12:47:57;101003.28;;;14.20;100.00
8585;BME280;7180;52.742;11.420;2023-05-23T12:50:22;101004.91;;;14.22;100.00
8585;BME280;7180;52.742;11.420;2023-05-23T12:52:48;101008.00;;;14.29;100.00
8585;BME280;7180;52.742;11.420;2023-05-23T12:55:13;101006.31;;;14.28;100.00
8585;BME280;7180;52.742;11.420;2023-05-23T12:57:38;101009.38;;;14.34;100.00
8585;BME280;7180;52.742;11.420;2023-05-23T13:00:04;101009.41;;;14.47;100.00
8585;BME280;7180;52.742;11.420;2023-05-23T13:02:30;101009.53;;;14.58;100.00